createdAt,value
2019-04-07T00:00:18.010Z,0.00
2019-04-07T00:01:18.459Z,0.00
2019-04-07T00:03:23.032Z,0.00
2019-04-07T00:04:22.660Z,0.00
2019-04-07T00:06:26.811Z,0.00
2019-04-07T00:07:27.520Z,0.00
2019-04-07T00:09:31.222Z,0.00
2019-04-07T00:10:31.559Z,0.00
2019-04-07T00:12:35.838Z,0.00
2019-04-07T00:13:36.453Z,0.00
2019-04-07T00:15:40.022Z,0.00
2019-04-07T00:16:40.257Z,0.00
2019-04-07T00:18:44.427Z,0.00
2019-04-07T00:19:44.783Z,0.00
2019-04-07T00:21:48.812Z,0.00
2019-04-07T00:22:49.050Z,0.00
2019-04-07T00:24:53.217Z,0.00
2019-04-07T00:25:53.453Z,0.00
2019-04-07T00:27:57.624Z,0.00
2019-04-07T00:28:57.864Z,0.00
2019-04-07T00:31:02.522Z,0.00
2019-04-07T00:32:02.526Z,0.00
2019-04-07T00:34:07.036Z,0.00
2019-04-07T00:35:06.657Z,0.00
2019-04-07T00:37:10.804Z,0.00
2019-04-07T00:38:11.173Z,0.00
2019-04-07T00:40:04.213Z,0.00
2019-04-07T00:41:04.593Z,0.00
2019-04-07T00:43:08.786Z,0.00
2019-04-07T00:44:08.786Z,0.00
2019-04-07T00:46:13.603Z,0.00
2019-04-07T00:47:13.167Z,0.00
2019-04-07T00:49:17.337Z,0.00
2019-04-07T00:50:17.571Z,0.00
2019-04-07T00:52:22.174Z,0.00
2019-04-07T00:53:22.072Z,0.00
2019-04-07T00:55:26.284Z,0.00
2019-04-07T00:56:26.945Z,0.00
2019-04-07T00:58:30.528Z,0.00
2019-04-07T00:59:30.876Z,0.00
2019-04-07T01:01:35.059Z,0.00
2019-04-07T01:02:35.148Z,0.00
2019-04-07T01:04:39.653Z,0.00
2019-04-07T01:05:41.752Z,0.00
2019-04-07T01:07:43.814Z,0.00
2019-04-07T01:08:43.942Z,0.00
2019-04-07T01:10:48.110Z,0.00
2019-04-07T01:11:48.574Z,0.00
2019-04-07T01:13:52.800Z,0.00
2019-04-07T01:14:53.304Z,0.00
2019-04-07T01:16:57.155Z,0.00
2019-04-07T01:17:57.739Z,0.00
2019-04-07T01:19:50.830Z,0.00
2019-04-07T01:20:50.481Z,0.00
2019-04-07T01:22:55.236Z,0.00
2019-04-07T01:23:54.867Z,0.00
2019-04-07T01:25:59.041Z,0.00
2019-04-07T01:26:59.277Z,0.00
2019-04-07T01:29:03.446Z,0.00
2019-04-07T01:30:04.141Z,0.00
2019-04-07T01:32:08.091Z,0.00
2019-04-07T01:33:08.717Z,0.00
2019-04-07T01:35:12.381Z,0.00
2019-04-07T01:36:12.684Z,0.00
2019-04-07T01:38:16.768Z,0.00
2019-04-07T01:39:16.943Z,0.00
2019-04-07T01:41:21.701Z,0.00
2019-04-07T01:42:21.417Z,0.00
2019-04-07T01:44:25.617Z,0.00
2019-04-07T01:45:25.712Z,0.00
2019-04-07T01:47:29.853Z,0.00
2019-04-07T01:48:30.270Z,0.00
2019-04-07T01:50:23.230Z,0.00
2019-04-07T01:51:23.658Z,0.00
2019-04-07T01:53:28.007Z,0.00
2019-04-07T01:54:28.352Z,0.00
2019-04-07T01:56:32.489Z,0.00
2019-04-07T01:57:32.348Z,0.00
2019-04-07T01:59:36.507Z,0.00
2019-04-07T02:00:37.096Z,0.00
2019-04-07T02:02:41.267Z,0.00
2019-04-07T02:03:40.999Z,0.00
2019-04-07T02:05:56.282Z,0.00
2019-04-07T02:06:45.404Z,0.00
2019-04-07T02:08:49.557Z,0.00
2019-04-07T02:09:49.793Z,0.00
2019-04-07T02:11:54.001Z,0.00
2019-04-07T02:12:54.196Z,0.00
2019-04-07T02:14:58.363Z,0.00
2019-04-07T02:15:59.095Z,0.00
2019-04-07T02:18:03.519Z,0.00
2019-04-07T02:19:03.591Z,0.00
2019-04-07T02:21:07.264Z,0.00
2019-04-07T02:22:07.815Z,0.00
2019-04-07T02:24:11.530Z,0.00
2019-04-07T02:25:11.949Z,0.00
2019-04-07T02:27:16.431Z,0.00
2019-04-07T02:28:16.484Z,0.00
2019-04-07T02:30:10.127Z,0.00
2019-04-07T02:31:09.773Z,0.00
2019-04-07T02:33:14.561Z,0.00
2019-04-07T02:34:13.905Z,0.00
2019-04-07T02:36:25.684Z,0.00
2019-04-07T02:37:19.232Z,0.00
2019-04-07T02:39:22.466Z,0.00
2019-04-07T02:40:23.429Z,0.00
2019-04-07T02:42:27.158Z,0.00
2019-04-07T02:43:27.437Z,0.00
2019-04-07T02:45:32.198Z,0.00
2019-04-07T02:46:31.525Z,0.00
2019-04-07T02:48:35.672Z,0.00
2019-04-07T02:49:35.905Z,0.00
2019-04-07T02:51:40.309Z,0.00
2019-04-07T02:52:40.319Z,0.00
2019-04-07T02:54:44.564Z,0.00
2019-04-07T02:55:45.244Z,0.00
2019-04-07T02:57:48.861Z,0.00
2019-04-07T02:58:49.756Z,0.00
2019-04-07T03:00:54.118Z,0.00
2019-04-07T03:01:53.483Z,0.00
2019-04-07T03:03:57.755Z,0.00
2019-04-07T03:04:58.581Z,0.00
2019-04-07T03:07:02.763Z,0.00
2019-04-07T03:08:02.275Z,0.00
2019-04-07T03:09:55.365Z,0.00
2019-04-07T03:10:55.912Z,0.00
2019-04-07T03:13:00.926Z,0.00
2019-04-07T03:14:00.204Z,0.00
2019-04-07T03:16:04.513Z,0.00
2019-04-07T03:17:05.542Z,0.00
2019-04-07T03:19:08.792Z,0.00
2019-04-07T03:20:08.807Z,0.00
2019-04-07T03:22:12.953Z,0.00
2019-04-07T03:23:13.182Z,0.00
2019-04-07T03:25:17.424Z,0.00
2019-04-07T03:26:18.418Z,0.00
2019-04-07T03:28:22.617Z,0.00
2019-04-07T03:29:22.000Z,0.00
2019-04-07T03:31:27.387Z,0.00
2019-04-07T03:32:27.826Z,0.00
2019-04-07T03:34:33.077Z,0.00
2019-04-07T03:35:33.854Z,0.00
2019-04-07T03:37:42.999Z,0.00
2019-04-07T03:38:35.332Z,0.00
2019-04-07T03:40:28.277Z,0.00
2019-04-07T03:41:29.088Z,0.00
2019-04-07T03:43:32.890Z,0.00
2019-04-07T03:44:32.923Z,0.00
2019-04-07T03:46:37.557Z,0.00
2019-04-07T03:47:37.612Z,0.00
2019-04-07T03:49:41.502Z,0.00
2019-04-07T03:50:41.710Z,0.00
2019-04-07T03:52:46.771Z,0.00
2019-04-07T03:53:46.091Z,0.00
2019-04-07T03:55:50.259Z,0.00
2019-04-07T03:56:50.494Z,0.00
2019-04-07T03:58:54.661Z,0.00
2019-04-07T03:59:55.497Z,0.00
2019-04-07T04:01:59.207Z,0.00
2019-04-07T04:02:59.604Z,0.00
2019-04-07T04:05:03.447Z,0.00
2019-04-07T04:06:04.620Z,0.00
2019-04-07T04:08:07.831Z,0.00
2019-04-07T04:09:08.268Z,0.00
2019-04-07T04:11:12.337Z,4.00
2019-04-07T04:12:12.471Z,0.00
2019-04-07T04:14:16.643Z,4.00
2019-04-07T04:15:16.944Z,4.00
2019-04-07T04:17:21.066Z,4.00
2019-04-07T04:18:21.266Z,4.00
2019-04-07T04:20:14.748Z,8.00
2019-04-07T04:21:15.361Z,12.00
2019-04-07T04:23:19.711Z,16.00
2019-04-07T04:24:19.921Z,20.00
2019-04-07T04:26:23.713Z,28.00
2019-04-07T04:27:23.845Z,32.00
2019-04-07T04:29:27.553Z,48.00
2019-04-07T04:30:27.924Z,56.00
2019-04-07T04:32:32.707Z,76.00
2019-04-07T04:33:33.026Z,92.00
2019-04-07T04:35:36.345Z,124.00
2019-04-07T04:36:36.590Z,144.00
2019-04-07T04:38:40.824Z,188.00
2019-04-07T04:39:41.123Z,212.00
2019-04-07T04:41:45.135Z,268.00
2019-04-07T04:42:45.376Z,300.00
2019-04-07T04:44:49.541Z,368.00
2019-04-07T04:45:50.444Z,404.00
2019-04-07T04:47:53.921Z,488.00
2019-04-07T04:48:54.551Z,532.00
2019-04-07T04:50:58.328Z,632.00
2019-04-07T04:51:58.710Z,684.00
2019-04-07T04:54:02.723Z,804.00
2019-04-07T04:55:03.620Z,864.00
2019-04-07T04:57:09.116Z,988.00
2019-04-07T04:58:07.383Z,1056.00
2019-04-07T05:00:00.427Z,1180.00
2019-04-07T05:01:00.923Z,1252.00
2019-04-07T05:03:04.824Z,1392.00
2019-04-07T05:04:05.064Z,1468.00
2019-04-07T05:06:10.036Z,1612.00
2019-04-07T05:07:10.194Z,1680.00
2019-04-07T05:09:14.510Z,1832.00
2019-04-07T05:10:13.863Z,1904.00
2019-04-07T05:12:18.039Z,2064.00
2019-04-07T05:13:18.277Z,2148.00
2019-04-07T05:15:23.010Z,2344.00
2019-04-07T05:16:23.070Z,2440.00
2019-04-07T05:18:26.904Z,2620.00
2019-04-07T05:19:27.233Z,2704.00
2019-04-07T05:21:31.518Z,2884.00
2019-04-07T05:22:32.073Z,2968.00
2019-04-07T05:24:35.607Z,3140.00
2019-04-07T05:25:36.138Z,3220.00
2019-04-07T05:27:40.359Z,3400.00
2019-04-07T05:28:40.598Z,3476.00
2019-04-07T05:30:33.669Z,3648.00
2019-04-07T05:31:33.700Z,3724.00
2019-04-07T05:33:37.743Z,3912.00
2019-04-07T05:34:37.979Z,4004.00
2019-04-07T05:36:42.207Z,4216.00
2019-04-07T05:37:42.548Z,4312.00
2019-04-07T05:39:47.179Z,4500.00
2019-04-07T05:40:47.477Z,4584.00
2019-04-07T05:42:51.037Z,4752.00
2019-04-07T05:43:51.167Z,4828.00
2019-04-07T05:45:55.496Z,5004.00
2019-04-07T05:46:56.047Z,5076.00
2019-04-07T05:49:00.464Z,5224.00
2019-04-07T05:50:02.844Z,5296.00
2019-04-07T05:52:05.724Z,5420.00
2019-04-07T05:53:04.361Z,5480.00
2019-04-07T05:55:08.933Z,5608.00
2019-04-07T05:56:08.749Z,5676.00
2019-04-07T05:58:15.322Z,5832.00
2019-04-07T05:59:14.025Z,5908.00
2019-04-07T06:01:22.559Z,6072.00
2019-04-07T06:02:17.856Z,6148.00
2019-04-07T06:04:21.788Z,6340.00
2019-04-07T06:05:22.228Z,6424.00
2019-04-07T06:07:30.234Z,6612.00
2019-04-07T06:08:32.593Z,6696.00
2019-04-07T06:10:22.321Z,6852.00
2019-04-07T06:11:19.668Z,6944.00
2019-04-07T06:13:23.836Z,7112.00
2019-04-07T06:14:24.423Z,7200.00
2019-04-07T06:16:28.741Z,7340.00
2019-04-07T06:17:28.510Z,7404.00
2019-04-07T06:19:32.624Z,7596.00
2019-04-07T06:20:33.363Z,7716.00
2019-04-07T06:22:37.059Z,8528.00
2019-04-07T06:23:37.561Z,8816.00
2019-04-07T06:25:43.290Z,9544.00
2019-04-07T06:26:43.907Z,10432.00
2019-04-07T06:28:51.143Z,11724.00
2019-04-07T06:29:46.225Z,12448.00
2019-04-07T06:31:50.210Z,12652.00
2019-04-07T06:32:50.575Z,11516.00
2019-04-07T06:34:55.160Z,12800.00
2019-04-07T06:35:55.944Z,12988.00
2019-04-07T06:38:04.083Z,14300.00
2019-04-07T06:38:59.413Z,15184.00
2019-04-07T06:41:03.458Z,14056.00
2019-04-07T06:42:03.660Z,14980.00
2019-04-07T06:44:13.309Z,14568.00
2019-04-07T06:45:08.055Z,15756.00
2019-04-07T06:47:12.783Z,19232.00
2019-04-07T06:48:12.463Z,17248.00
2019-04-07T06:50:05.807Z,17216.00
2019-04-07T06:51:06.059Z,19872.00
2019-04-07T06:53:16.929Z,23744.00
2019-04-07T06:54:10.211Z,22496.00
2019-04-07T06:56:14.377Z,24192.00
2019-04-07T06:57:14.841Z,28064.00
2019-04-07T06:59:18.817Z,27968.00
2019-04-07T07:00:20.665Z,21536.00
2019-04-07T07:02:23.905Z,18368.00
2019-04-07T07:03:23.788Z,18272.00
2019-04-07T07:05:27.903Z,15748.00
2019-04-07T07:06:28.547Z,15228.00
2019-04-07T07:08:42.532Z,14900.00
2019-04-07T07:09:33.320Z,14816.00
2019-04-07T07:11:41.139Z,14784.00
2019-04-07T07:12:39.148Z,14792.00
2019-04-07T07:14:44.490Z,14832.00
2019-04-07T07:15:41.166Z,14940.00
2019-04-07T07:17:47.815Z,15236.00
2019-04-07T07:18:45.867Z,15260.00
2019-04-07T07:20:49.717Z,15496.00
2019-04-07T07:21:50.163Z,15788.00
2019-04-07T07:23:54.124Z,17728.00
2019-04-07T07:24:58.002Z,22688.00
2019-04-07T07:26:58.548Z,28416.00
2019-04-07T07:27:58.859Z,29408.00
2019-04-07T07:29:53.583Z,31072.00
2019-04-07T07:30:53.478Z,31712.00
2019-04-07T07:32:56.463Z,35616.00
2019-04-07T07:33:57.125Z,35840.00
2019-04-07T07:36:01.294Z,34784.00
2019-04-07T07:37:00.964Z,37632.00
2019-04-07T07:39:08.555Z,38592.00
2019-04-07T07:40:07.903Z,37920.00
2019-04-07T07:42:09.559Z,38944.00
2019-04-07T07:43:09.856Z,40448.00
2019-04-07T07:45:14.099Z,45376.00
2019-04-07T07:46:18.115Z,44160.00
2019-04-07T07:48:18.479Z,44480.00
2019-04-07T07:49:19.189Z,45696.00
2019-04-07T07:51:23.580Z,43680.00
2019-04-07T07:52:23.280Z,44160.00
2019-04-07T07:54:28.242Z,46080.00
2019-04-07T07:55:27.502Z,47488.00
2019-04-07T07:57:31.759Z,48160.00
2019-04-07T07:58:33.629Z,48384.00
2019-04-07T08:00:25.677Z,51168.00
2019-04-07T08:01:25.658Z,50848.00
2019-04-07T08:03:29.437Z,52512.00
2019-04-07T08:04:30.164Z,52992.00
2019-04-07T08:06:34.546Z,54656.00
2019-04-07T08:07:34.755Z,55104.00
2019-04-07T08:09:38.320Z,54496.00
2019-04-07T08:10:38.565Z,56224.00
2019-04-07T08:12:43.681Z,57440.00
2019-04-07T08:13:44.953Z,56800.00
2019-04-07T08:15:47.173Z,59040.00
2019-04-07T08:16:47.868Z,59968.00
2019-04-07T08:18:52.121Z,63552.00
2019-04-07T08:19:52.388Z,61632.00
2019-04-07T08:21:56.031Z,63776.00
2019-04-07T08:22:56.280Z,64064.00
2019-04-07T08:25:01.032Z,63616.00
2019-04-07T08:26:00.726Z,64032.00
2019-04-07T08:28:04.898Z,62528.00
2019-04-07T08:29:06.746Z,63936.00
2019-04-07T08:31:09.875Z,64032.00
2019-04-07T08:32:09.646Z,66816.00
2019-04-07T08:34:14.311Z,67744.00
2019-04-07T08:35:14.320Z,69984.00
2019-04-07T08:37:19.022Z,73472.00
2019-04-07T08:38:19.951Z,71616.00
2019-04-07T08:40:11.963Z,75616.00
2019-04-07T08:41:14.254Z,70112.00
2019-04-07T08:43:19.632Z,70400.00
2019-04-07T08:44:16.308Z,66048.00
2019-04-07T08:46:20.554Z,71232.00
2019-04-07T08:47:22.248Z,68608.00
2019-04-07T08:49:25.604Z,80032.00
2019-04-07T08:50:27.705Z,77312.00
2019-04-07T08:52:29.637Z,78144.00
2019-04-07T08:53:30.561Z,79648.00
2019-04-07T08:55:34.557Z,78272.00
2019-04-07T08:56:34.277Z,76704.00
2019-04-07T08:58:39.168Z,80032.00
2019-04-07T08:59:42.464Z,79936.00
2019-04-07T09:01:43.481Z,75392.00
2019-04-07T09:02:43.804Z,80288.00
2019-04-07T09:04:50.368Z,82592.00
2019-04-07T09:05:47.879Z,83136.00
2019-04-07T09:07:52.873Z,86272.00
2019-04-07T09:08:52.197Z,83136.00
2019-04-07T09:10:56.673Z,81984.00
2019-04-07T09:11:57.553Z,78976.00
2019-04-07T09:14:00.958Z,85248.00
2019-04-07T09:15:03.961Z,85952.00
2019-04-07T09:16:56.173Z,82528.00
2019-04-07T09:17:55.522Z,86432.00
2019-04-07T09:19:47.916Z,88960.00
2019-04-07T09:20:49.328Z,83904.00
2019-04-07T09:22:54.985Z,85408.00
2019-04-07T09:23:55.175Z,88128.00
2019-04-07T09:25:58.370Z,81216.00
2019-04-07T09:26:58.827Z,82624.00
2019-04-07T09:29:02.504Z,89344.00
2019-04-07T09:30:05.446Z,91488.00
2019-04-07T09:32:08.407Z,86112.00
2019-04-07T09:33:08.531Z,91584.00
2019-04-07T09:35:12.551Z,95712.00
2019-04-07T09:36:13.384Z,92992.00
2019-04-07T09:38:17.564Z,92224.00
2019-04-07T09:39:17.631Z,92128.00
2019-04-07T09:41:24.875Z,94496.00
2019-04-07T09:42:24.319Z,95104.00
2019-04-07T09:44:26.556Z,93824.00
2019-04-07T09:45:26.471Z,92128.00
2019-04-07T09:47:30.414Z,96096.00
2019-04-07T09:48:30.609Z,99776.00
2019-04-07T09:50:26.892Z,77056.00
2019-04-07T09:51:24.340Z,95104.00
2019-04-07T09:53:28.617Z,95744.00
2019-04-07T09:54:28.414Z,95648.00
2019-04-07T09:56:33.631Z,97888.00
2019-04-07T09:57:36.084Z,98112.00
2019-04-07T09:59:37.555Z,97216.00
2019-04-07T10:00:37.303Z,101504.00
2019-04-07T10:02:41.503Z,101184.00
2019-04-07T10:03:41.782Z,97184.00
2019-04-07T10:05:45.947Z,98720.00
2019-04-07T10:06:46.199Z,100704.00
2019-04-07T10:08:50.410Z,102784.00
2019-04-07T10:09:54.857Z,97600.00
2019-04-07T10:11:55.440Z,96800.00
2019-04-07T10:12:55.423Z,101760.00
2019-04-07T10:14:59.734Z,106656.00
2019-04-07T10:15:59.880Z,103936.00
2019-04-07T10:18:04.147Z,100352.00
2019-04-07T10:19:03.986Z,108096.00
2019-04-07T10:21:08.822Z,104672.00
2019-04-07T10:22:08.482Z,101216.00
2019-04-07T10:24:13.059Z,110496.00
2019-04-07T10:25:12.873Z,105312.00
2019-04-07T10:27:17.898Z,99520.00
2019-04-07T10:28:17.680Z,107936.00
2019-04-07T10:30:11.057Z,103552.00
2019-04-07T10:31:11.341Z,103200.00
2019-04-07T10:33:14.888Z,107296.00
2019-04-07T10:34:15.143Z,113184.00
2019-04-07T10:36:19.548Z,114208.00
2019-04-07T10:37:19.568Z,109440.00
2019-04-07T10:39:24.094Z,106816.00
2019-04-07T10:40:24.433Z,111456.00
2019-04-07T10:42:28.306Z,121792.00
2019-04-07T10:43:28.905Z,117440.00
2019-04-07T10:45:32.989Z,109504.00
2019-04-07T10:46:33.672Z,113824.00
2019-04-07T10:48:37.927Z,109760.00
2019-04-07T10:49:38.114Z,110624.00
2019-04-07T10:51:42.051Z,116352.00
2019-04-07T10:52:41.885Z,113312.00
2019-04-07T10:54:46.083Z,108416.00
2019-04-07T10:55:46.339Z,111168.00
2019-04-07T10:57:50.618Z,116672.00
2019-04-07T10:58:50.803Z,113504.00
2019-04-07T11:00:54.979Z,117280.00
2019-04-07T11:01:55.230Z,115424.00
2019-04-07T11:03:59.482Z,110016.00
2019-04-07T11:04:59.686Z,27296.00
2019-04-07T11:07:04.175Z,118080.00
2019-04-07T11:08:04.928Z,115968.00
2019-04-07T11:09:57.558Z,115456.00
2019-04-07T11:10:57.493Z,115616.00
2019-04-07T11:13:01.845Z,115456.00
2019-04-07T11:14:01.959Z,120000.00
2019-04-07T11:16:06.365Z,115712.00
2019-04-07T11:17:06.563Z,104544.00
2019-04-07T11:19:11.092Z,117344.00
2019-04-07T11:20:11.435Z,118368.00
2019-04-07T11:22:15.008Z,117120.00
2019-04-07T11:23:15.552Z,82656.00
2019-04-07T11:25:19.479Z,119136.00
2019-04-07T11:26:19.726Z,117376.00
2019-04-07T11:28:24.244Z,110208.00
2019-04-07T11:29:24.350Z,52160.00
2019-04-07T11:31:28.354Z,107136.00
2019-04-07T11:32:28.894Z,118272.00
2019-04-07T11:34:33.148Z,121792.00
2019-04-07T11:35:33.062Z,118400.00
2019-04-07T11:37:37.574Z,120224.00
2019-04-07T11:38:37.500Z,116288.00
2019-04-07T11:40:42.053Z,117920.00
2019-04-07T11:41:31.670Z,122848.00
2019-04-07T11:43:35.854Z,48256.00
2019-04-07T11:44:35.660Z,92416.00
2019-04-07T11:46:40.103Z,98176.00
2019-04-07T11:47:40.413Z,113664.00
2019-04-07T11:49:45.027Z,120160.00
2019-04-07T11:50:45.002Z,116832.00
2019-04-07T11:52:48.409Z,117280.00
2019-04-07T11:53:48.661Z,114336.00
2019-04-07T11:55:53.208Z,47776.00
2019-04-07T11:56:53.410Z,114592.00
2019-04-07T11:58:57.362Z,113664.00
2019-04-07T11:59:57.662Z,31328.00
2019-04-07T12:02:01.895Z,115936.00
2019-04-07T12:03:02.615Z,112960.00
2019-04-07T12:05:06.497Z,114592.00
2019-04-07T12:06:06.596Z,119520.00
2019-04-07T12:08:11.507Z,118816.00
2019-04-07T12:09:10.896Z,117120.00
2019-04-07T12:11:15.676Z,82368.00
2019-04-07T12:12:15.345Z,37472.00
2019-04-07T12:14:20.305Z,36800.00
2019-04-07T12:15:23.955Z,26752.00
2019-04-07T12:17:24.506Z,24608.00
2019-04-07T12:18:24.226Z,29120.00
2019-04-07T12:20:18.364Z,113376.00
2019-04-07T12:21:22.632Z,57600.00
2019-04-07T12:23:25.214Z,40416.00
2019-04-07T12:24:26.495Z,111296.00
2019-04-07T12:26:27.380Z,42560.00
2019-04-07T12:27:27.499Z,39232.00
2019-04-07T12:29:31.699Z,87968.00
2019-04-07T12:30:32.645Z,95840.00
2019-04-07T12:32:36.149Z,39936.00
2019-04-07T12:33:38.520Z,30080.00
2019-04-07T12:35:40.600Z,30304.00
2019-04-07T12:36:40.917Z,37984.00
2019-04-07T12:38:45.954Z,26240.00
2019-04-07T12:39:47.216Z,25952.00
2019-04-07T12:41:50.047Z,22368.00
2019-04-07T12:42:50.283Z,21568.00
2019-04-07T12:44:53.944Z,21600.00
2019-04-07T12:45:54.824Z,21344.00
2019-04-07T12:47:58.440Z,20544.00
2019-04-07T12:48:58.753Z,21472.00
2019-04-07T12:51:03.129Z,24320.00
2019-04-07T12:52:03.059Z,23968.00
2019-04-07T12:54:09.096Z,27168.00
2019-04-07T12:55:08.070Z,29728.00
2019-04-07T12:57:12.172Z,31488.00
2019-04-07T12:58:12.817Z,34080.00
2019-04-07T13:00:05.922Z,32928.00
2019-04-07T13:01:11.264Z,29056.00
2019-04-07T13:03:09.459Z,27712.00
2019-04-07T13:04:10.095Z,29408.00
2019-04-07T13:06:14.599Z,36192.00
2019-04-07T13:07:17.692Z,95040.00
2019-04-07T13:09:18.335Z,85728.00
2019-04-07T13:10:19.407Z,35360.00
2019-04-07T13:12:24.702Z,27712.00
2019-04-07T13:13:26.898Z,29312.00
2019-04-07T13:15:29.848Z,43200.00
2019-04-07T13:16:27.826Z,69088.00
2019-04-07T13:18:31.642Z,38880.00
2019-04-07T13:19:32.103Z,95840.00
2019-04-07T13:21:36.070Z,90560.00
2019-04-07T13:22:36.492Z,95232.00
2019-04-07T13:24:43.997Z,84128.00
2019-04-07T13:25:40.765Z,91552.00
2019-04-07T13:27:44.995Z,90496.00
2019-04-07T13:28:45.162Z,95104.00
2019-04-07T13:30:50.107Z,99520.00
2019-04-07T13:31:50.317Z,96768.00
2019-04-07T13:33:54.372Z,78048.00
2019-04-07T13:34:54.029Z,89632.00
2019-04-07T13:36:59.004Z,87296.00
2019-04-07T13:37:59.029Z,88384.00
2019-04-07T13:39:52.346Z,92800.00
2019-04-07T13:40:52.056Z,89728.00
2019-04-07T13:42:59.093Z,88576.00
2019-04-07T13:43:56.277Z,88032.00
2019-04-07T13:46:01.221Z,83840.00
2019-04-07T13:47:00.749Z,83808.00
2019-04-07T13:49:04.899Z,83840.00
2019-04-07T13:50:05.351Z,84832.00
2019-04-07T13:52:09.670Z,26976.00
2019-04-07T13:53:09.956Z,24128.00
2019-04-07T13:55:14.097Z,78944.00
2019-04-07T13:56:15.584Z,75808.00
2019-04-07T13:58:18.227Z,83776.00
2019-04-07T13:59:19.118Z,82400.00
2019-04-07T14:01:22.827Z,79008.00
2019-04-07T14:02:26.260Z,43680.00
2019-04-07T14:04:27.906Z,35936.00
2019-04-07T14:05:28.031Z,33280.00
2019-04-07T14:07:31.947Z,25056.00
2019-04-07T14:08:32.141Z,33024.00
2019-04-07T14:10:25.600Z,27808.00
2019-04-07T14:11:25.186Z,28864.00
2019-04-07T14:13:29.957Z,64896.00
2019-04-07T14:14:30.308Z,63936.00
2019-04-07T14:16:34.650Z,41408.00
2019-04-07T14:17:34.048Z,36224.00
2019-04-07T14:19:38.634Z,49760.00
2019-04-07T14:20:38.717Z,44192.00
2019-04-07T14:22:42.663Z,16980.00
2019-04-07T14:23:42.913Z,16148.00
2019-04-07T14:25:48.248Z,17096.00
2019-04-07T14:26:47.832Z,18024.00
2019-04-07T14:28:52.194Z,22880.00
2019-04-07T14:29:52.432Z,57856.00
2019-04-07T14:31:56.583Z,53888.00
2019-04-07T14:32:56.759Z,25632.00
2019-04-07T14:35:00.951Z,30848.00
2019-04-07T14:36:00.906Z,41376.00
2019-04-07T14:38:04.895Z,52576.00
2019-04-07T14:39:05.327Z,49248.00
2019-04-07T14:41:09.697Z,20256.00
2019-04-07T14:42:10.082Z,21792.00
2019-04-07T14:44:13.970Z,52608.00
2019-04-07T14:45:14.535Z,52832.00
2019-04-07T14:47:18.669Z,52608.00
2019-04-07T14:48:18.544Z,51392.00
2019-04-07T14:50:12.100Z,45120.00
2019-04-07T14:51:11.732Z,22400.00
2019-04-07T14:53:16.495Z,21184.00
2019-04-07T14:54:16.399Z,20576.00
2019-04-07T14:56:20.652Z,43712.00
2019-04-07T14:57:20.630Z,27520.00
2019-04-07T14:59:27.245Z,19144.00
2019-04-07T15:00:26.796Z,18756.00
2019-04-07T15:02:30.316Z,20448.00
2019-04-07T15:03:30.762Z,20096.00
2019-04-07T15:05:35.352Z,20736.00
2019-04-07T15:06:35.039Z,20832.00
2019-04-07T15:08:39.779Z,20896.00
2019-04-07T15:09:40.086Z,20896.00
2019-04-07T15:11:44.305Z,21248.00
2019-04-07T15:12:44.271Z,21536.00
2019-04-07T15:14:47.939Z,21728.00
2019-04-07T15:15:51.059Z,21504.00
2019-04-07T15:17:52.430Z,20896.00
2019-04-07T15:18:53.420Z,20288.00
2019-04-07T15:20:57.289Z,19136.00
2019-04-07T15:21:57.040Z,18180.00
2019-04-07T15:24:05.482Z,17516.00
2019-04-07T15:25:01.689Z,17144.00
2019-04-07T15:27:06.739Z,17028.00
2019-04-07T15:28:06.798Z,17004.00
2019-04-07T15:30:00.547Z,16968.00
2019-04-07T15:30:59.257Z,17016.00
2019-04-07T15:33:04.232Z,17324.00
2019-04-07T15:34:06.486Z,17624.00
2019-04-07T15:36:09.157Z,18592.00
2019-04-07T15:37:08.108Z,18912.00
2019-04-07T15:39:12.950Z,19392.00
2019-04-07T15:40:12.551Z,19552.00
2019-04-07T15:42:33.262Z,19616.00
2019-04-07T15:43:17.183Z,19328.00
2019-04-07T15:45:21.677Z,17600.00
2019-04-07T15:46:22.470Z,16556.00
2019-04-07T15:48:26.879Z,14852.00
2019-04-07T15:49:28.156Z,14436.00
2019-04-07T15:51:34.161Z,13928.00
2019-04-07T15:52:31.647Z,14012.00
2019-04-07T15:54:35.063Z,13988.00
2019-04-07T15:55:45.662Z,12564.00
2019-04-07T15:57:39.194Z,11432.00
2019-04-07T15:58:39.761Z,12116.00
2019-04-07T16:00:35.211Z,13444.00
2019-04-07T16:01:33.618Z,15412.00
2019-04-07T16:03:37.038Z,18144.00
2019-04-07T16:04:38.234Z,16608.00
2019-04-07T16:06:41.940Z,18784.00
2019-04-07T16:07:41.947Z,19264.00
2019-04-07T16:09:52.808Z,17728.00
2019-04-07T16:10:46.635Z,17984.00
2019-04-07T16:12:52.810Z,17664.00
2019-04-07T16:13:50.627Z,16928.00
2019-04-07T16:15:55.329Z,16608.00
2019-04-07T16:16:55.098Z,16832.00
2019-04-07T16:18:59.399Z,15152.00
2019-04-07T16:20:00.513Z,14940.00
2019-04-07T16:22:04.312Z,14192.00
2019-04-07T16:23:04.946Z,13784.00
2019-04-07T16:25:08.254Z,12864.00
2019-04-07T16:26:10.346Z,12752.00
2019-04-07T16:28:14.657Z,12012.00
2019-04-07T16:29:15.525Z,11776.00
2019-04-07T16:31:17.140Z,11228.00
2019-04-07T16:32:17.446Z,11180.00
2019-04-07T16:34:21.635Z,10488.00
2019-04-07T16:35:22.481Z,10228.00
2019-04-07T16:37:29.123Z,9352.00
2019-04-07T16:38:28.362Z,9304.00
2019-04-07T16:40:19.653Z,8896.00
2019-04-07T16:41:19.707Z,8768.00
2019-04-07T16:43:24.160Z,8544.00
2019-04-07T16:44:24.521Z,8404.00
2019-04-07T16:46:28.342Z,7872.00
2019-04-07T16:47:32.643Z,7652.00
2019-04-07T16:49:32.887Z,7512.00
2019-04-07T16:50:32.966Z,7236.00
2019-04-07T16:52:37.147Z,6852.00
2019-04-07T16:53:39.093Z,6632.00
2019-04-07T16:55:41.720Z,6004.00
2019-04-07T16:56:41.806Z,5864.00
2019-04-07T16:58:46.103Z,5796.00
2019-04-07T16:59:46.770Z,5800.00
2019-04-07T17:01:50.918Z,5392.00
2019-04-07T17:02:51.298Z,5248.00
2019-04-07T17:04:55.771Z,5088.00
2019-04-07T17:05:58.888Z,4972.00
2019-04-07T17:07:59.597Z,4596.00
2019-04-07T17:09:00.422Z,4440.00
2019-04-07T17:11:07.341Z,4136.00
2019-04-07T17:12:04.392Z,4000.00
2019-04-07T17:14:09.159Z,3736.00
2019-04-07T17:15:08.903Z,3580.00
2019-04-07T17:17:15.709Z,3252.00
2019-04-07T17:18:14.157Z,3108.00
2019-04-07T17:20:06.913Z,2864.00
2019-04-07T17:21:08.975Z,2756.00
2019-04-07T17:23:11.149Z,2528.00
2019-04-07T17:24:11.273Z,2440.00
2019-04-07T17:26:15.426Z,2328.00
2019-04-07T17:27:16.121Z,2296.00
2019-04-07T17:29:21.464Z,2200.00
2019-04-07T17:30:21.164Z,2148.00
2019-04-07T17:32:24.327Z,1972.00
2019-04-07T17:33:24.570Z,1856.00
2019-04-07T17:35:29.548Z,1588.00
2019-04-07T17:36:29.287Z,1464.00
2019-04-07T17:38:34.016Z,1240.00
2019-04-07T17:39:36.903Z,1144.00
2019-04-07T17:41:37.571Z,976.00
2019-04-07T17:42:38.712Z,912.00
2019-04-07T17:44:41.982Z,784.00
2019-04-07T17:45:42.949Z,728.00
2019-04-07T17:47:46.376Z,624.00
2019-04-07T17:48:52.783Z,584.00
2019-04-07T17:50:50.799Z,504.00
2019-04-07T17:51:51.100Z,464.00
2019-04-07T17:53:55.226Z,396.00
2019-04-07T17:54:55.812Z,372.00
2019-04-07T17:57:03.157Z,312.00
2019-04-07T17:57:59.857Z,284.00
2019-04-07T17:59:53.594Z,240.00
2019-04-07T18:00:53.272Z,216.00
2019-04-07T18:03:04.557Z,176.00
2019-04-07T18:03:58.347Z,160.00
2019-04-07T18:06:01.811Z,120.00
2019-04-07T18:07:04.340Z,108.00
2019-04-07T18:09:10.794Z,80.00
2019-04-07T18:10:06.891Z,72.00
2019-04-07T18:12:13.696Z,56.00
2019-04-07T18:13:10.875Z,48.00
2019-04-07T18:15:17.507Z,32.00
2019-04-07T18:16:15.334Z,28.00
2019-04-07T18:18:23.591Z,24.00
2019-04-07T18:19:19.781Z,16.00
2019-04-07T18:21:24.014Z,12.00
2019-04-07T18:22:24.817Z,8.00
2019-04-07T18:24:30.093Z,4.00
2019-04-07T18:25:32.236Z,4.00
2019-04-07T18:27:32.931Z,4.00
2019-04-07T18:28:33.115Z,4.00
2019-04-07T18:30:30.469Z,4.00
2019-04-07T18:31:27.395Z,4.00
2019-04-07T18:33:31.328Z,0.00
2019-04-07T18:34:32.327Z,0.00
2019-04-07T18:36:36.575Z,0.00